createdAt,value
2023-03-21T08:32:19.102Z,53.88
2023-03-21T08:35:24.088Z,55.85
2023-03-21T08:38:30.219Z,55.83
2023-03-21T08:41:37.251Z,52.90
2023-03-21T08:44:41.651Z,55.08
2023-03-21T08:47:47.152Z,57.15
2023-03-21T08:50:51.756Z,55.92
2023-03-21T08:53:56.700Z,54.90
2023-03-21T08:57:01.045Z,54.63
2023-03-21T09:00:17.742Z,57.13
2023-03-21T09:03:22.172Z,57.05
2023-03-21T09:06:27.510Z,58.33
2023-03-21T09:09:32.465Z,56.10
2023-03-21T09:12:37.322Z,57.38
2023-03-21T09:15:41.854Z,60.72
2023-03-21T09:18:48.894Z,60.75
2023-03-21T09:22:00.027Z,58.63
2023-03-21T09:25:11.789Z,57.63
2023-03-21T09:28:18.063Z,62.13
2023-03-21T09:31:23.622Z,59.42
2023-03-21T09:34:31.737Z,63.25
2023-03-21T09:37:38.476Z,61.47
2023-03-21T09:40:53.166Z,60.70
2023-03-21T09:44:24.757Z,61.35
2023-03-21T09:47:37.739Z,59.65
2023-03-21T09:50:43.606Z,59.08
2023-03-21T09:53:51.651Z,57.88
2023-03-21T09:57:01.287Z,54.17
2023-03-21T10:00:19.338Z,51.70
2023-03-21T10:03:30.597Z,53.53
2023-03-21T10:06:41.165Z,48.72
2023-03-21T10:09:48.395Z,52.38
2023-03-21T10:12:56.402Z,49.50
2023-03-21T10:16:22.023Z,50.10
2023-03-21T10:19:28.666Z,46.30
2023-03-21T10:22:34.826Z,45.03
2023-03-21T10:25:50.616Z,42.95
2023-03-21T10:29:00.004Z,39.38
2023-03-21T10:32:05.461Z,40.33
2023-03-21T10:35:13.995Z,41.50
2023-03-21T10:38:23.509Z,39.78
2023-03-21T10:41:28.212Z,36.47
2023-03-21T10:44:35.643Z,36.58
2023-03-21T10:47:42.644Z,36.65
2023-03-21T10:50:56.369Z,34.63
2023-03-21T10:54:13.122Z,31.58
2023-03-21T10:57:23.285Z,32.45
2023-03-21T11:00:41.390Z,28.83
2023-03-21T11:03:48.594Z,28.10
2023-03-21T11:07:02.182Z,28.98
2023-03-21T11:10:29.250Z,29.30
2023-03-21T11:13:42.876Z,27.63
2023-03-21T11:16:49.667Z,28.70
2023-03-21T11:20:05.693Z,26.55
2023-03-21T11:23:30.043Z,24.25
2023-03-21T11:26:37.750Z,24.83
2023-03-21T11:29:50.227Z,26.35
2023-03-21T11:33:03.668Z,27.17
2023-03-21T11:36:19.207Z,24.35
2023-03-21T11:39:34.386Z,24.20
2023-03-21T11:42:45.767Z,25.80
2023-03-21T11:46:16.698Z,24.90
2023-03-21T11:49:26.487Z,24.52
2023-03-21T11:53:04.715Z,24.38
2023-03-21T11:56:26.518Z,22.65
2023-03-21T12:00:14.414Z,23.13
2023-03-21T12:03:47.291Z,21.38
2023-03-21T12:07:03.783Z,23.08
2023-03-21T12:10:52.337Z,21.70
2023-03-21T12:14:53.568Z,21.20
2023-03-21T12:18:11.913Z,20.27
2023-03-21T12:21:35.007Z,20.17
2023-03-21T12:25:10.579Z,21.15
2023-03-21T12:29:38.243Z,21.08
2023-03-21T12:33:13.704Z,21.75
2023-03-21T12:36:24.632Z,19.80
2023-03-21T12:39:36.460Z,19.33
2023-03-21T12:42:57.356Z,20.20
2023-03-21T12:46:09.596Z,18.25
2023-03-21T12:49:38.484Z,18.52
2023-03-21T12:52:48.316Z,18.75
2023-03-21T12:55:57.315Z,17.30
2023-03-21T12:59:11.105Z,17.83
2023-03-21T13:02:40.711Z,16.60
2023-03-21T13:06:03.723Z,15.05
2023-03-21T13:09:28.554Z,15.23
2023-03-21T13:13:13.803Z,15.02
2023-03-21T13:16:36.722Z,13.27
2023-03-21T13:19:57.592Z,11.52
2023-03-21T13:23:03.640Z,12.15
2023-03-21T13:26:11.336Z,10.25
2023-03-21T13:29:21.753Z,10.82
2023-03-21T13:32:34.457Z,11.15
2023-03-21T13:35:46.016Z,14.13
2023-03-21T13:38:54.858Z,13.73
2023-03-21T13:42:06.147Z,12.00
2023-03-21T13:45:23.537Z,13.05
2023-03-21T13:49:00.681Z,12.57
2023-03-21T13:52:12.213Z,12.18
2023-03-21T13:55:49.760Z,10.73
2023-03-21T13:59:02.729Z,10.80
2023-03-21T14:02:34.145Z,10.73
2023-03-21T14:05:41.330Z,10.80
2023-03-21T14:08:49.002Z,10.48
2023-03-21T14:12:18.749Z,11.30
2023-03-21T14:15:55.886Z,11.38
2023-03-21T14:19:05.582Z,12.20
2023-03-21T14:22:13.675Z,12.55
2023-03-21T14:25:34.026Z,12.90
2023-03-21T14:28:51.107Z,14.05
2023-03-21T14:31:57.660Z,14.05
2023-03-21T14:35:02.819Z,14.55
2023-03-21T14:38:22.034Z,31.52
2023-03-21T14:41:30.010Z,34.50
2023-03-21T14:44:52.860Z,18.02
2023-03-21T14:48:07.660Z,17.23
2023-03-21T14:51:12.714Z,17.33
2023-03-21T14:54:19.788Z,17.33
2023-03-21T14:57:29.036Z,17.67
2023-03-21T15:00:35.587Z,17.10
2023-03-21T15:03:40.798Z,17.50
2023-03-21T15:06:57.944Z,18.73
2023-03-21T15:10:08.584Z,17.65
2023-03-21T15:13:20.774Z,18.38
2023-03-21T15:16:25.932Z,19.90
2023-03-21T15:19:38.010Z,20.35
2023-03-21T15:22:51.105Z,24.45
2023-03-21T15:25:56.512Z,23.63
2023-03-21T15:29:00.861Z,19.95
2023-03-21T15:32:12.661Z,21.42
2023-03-21T15:35:25.342Z,22.38
2023-03-21T15:41:45.579Z,20.27
2023-03-21T15:45:16.587Z,20.35
2023-03-21T15:49:08.920Z,19.33
2023-03-21T15:57:29.699Z,19.60
2023-03-21T16:01:28.674Z,25.55
2023-03-21T16:05:35.483Z,27.65
2023-03-21T16:10:00.913Z,20.40
2023-03-21T16:18:38.426Z,24.58
2023-03-21T16:39:26.813Z,26.63
2023-03-21T16:42:50.945Z,31.05
2023-03-21T16:57:13.337Z,29.13
2023-03-21T17:09:30.562Z,26.70
2023-03-21T17:12:48.879Z,29.60
2023-03-21T17:19:54.729Z,28.13
2023-03-21T17:47:49.004Z,29.15
2023-03-21T17:51:37.277Z,31.50
2023-03-21T17:55:27.276Z,30.65
2023-03-21T18:02:07.095Z,32.35
2023-03-21T18:08:25.370Z,31.73
2023-03-21T18:11:49.175Z,32.15
2023-03-21T18:15:52.845Z,28.90
2023-03-21T18:19:55.867Z,30.98
2023-03-21T18:44:09.346Z,31.30
2023-03-21T18:48:06.804Z,31.35
2023-03-21T18:57:33.913Z,33.22
2023-03-21T19:00:41.265Z,34.25
2023-03-21T19:04:30.190Z,34.75
2023-03-21T19:45:21.440Z,59.92
2023-03-21T19:53:58.636Z,43.95
2023-03-21T20:02:34.961Z,40.00
2023-03-21T20:05:41.366Z,41.50
2023-03-21T20:09:34.051Z,40.00
2023-03-21T20:12:12.200Z,39.83
2023-03-21T20:15:19.974Z,39.30
2023-03-21T20:18:28.958Z,39.45
2023-03-21T20:21:45.286Z,39.33
2023-03-21T20:24:52.771Z,38.60
2023-03-21T20:28:14.533Z,38.65
2023-03-21T20:31:20.356Z,36.95
2023-03-21T20:34:24.639Z,38.78
2023-03-21T20:37:32.754Z,38.15
2023-03-21T20:40:40.191Z,39.47
2023-03-21T20:44:36.402Z,39.35
2023-03-21T20:47:17.125Z,38.35
2023-03-21T20:50:23.063Z,39.13
2023-03-21T20:53:37.859Z,38.70
2023-03-21T20:56:44.412Z,36.47
2023-03-21T20:59:49.583Z,38.17
2023-03-21T21:09:40.286Z,36.20
2023-03-21T21:12:45.414Z,37.53
2023-03-21T21:15:54.594Z,35.60
2023-03-21T21:19:00.878Z,36.33
2023-03-21T21:22:06.516Z,35.40
2023-03-21T21:25:11.405Z,36.45
2023-03-21T21:28:15.839Z,37.45
2023-03-21T21:31:21.602Z,36.75
2023-03-21T21:34:26.669Z,36.45
2023-03-21T21:37:33.994Z,37.13
2023-03-21T21:40:38.598Z,35.40
2023-03-21T21:43:43.226Z,36.08
2023-03-21T21:46:47.974Z,34.05
2023-03-21T21:49:52.884Z,34.05
2023-03-21T21:52:57.842Z,33.95
2023-03-21T21:56:06.503Z,35.28
2023-03-21T21:59:11.042Z,35.70
2023-03-21T22:02:18.131Z,33.20
2023-03-21T22:05:25.519Z,35.05
2023-03-21T22:08:31.302Z,33.90
2023-03-21T22:11:37.281Z,34.47
2023-03-21T22:14:42.056Z,33.28
2023-03-21T22:17:46.434Z,33.50
2023-03-21T22:20:54.867Z,35.67
2023-03-21T22:23:59.476Z,33.70
2023-03-21T22:27:04.470Z,34.50
2023-03-21T22:30:13.820Z,32.92
2023-03-21T22:33:19.957Z,34.25
2023-03-21T22:36:24.983Z,33.20
2023-03-21T22:39:29.375Z,33.92
2023-03-21T22:42:39.664Z,33.95
2023-03-21T22:45:43.823Z,34.47
2023-03-21T22:48:48.611Z,34.92
2023-03-21T22:51:54.340Z,33.45
2023-03-21T22:55:00.089Z,34.83
2023-03-21T22:58:09.370Z,35.25
2023-03-21T23:01:14.225Z,36.30
2023-03-21T23:04:20.275Z,36.03
2023-03-21T23:07:24.681Z,36.20
2023-03-21T23:10:29.982Z,36.97
2023-03-21T23:13:34.318Z,37.17
2023-03-21T23:16:38.736Z,36.75
2023-03-21T23:19:43.382Z,35.97
2023-03-21T23:22:47.586Z,38.00
2023-03-21T23:25:52.475Z,37.05
2023-03-21T23:28:57.497Z,37.75
2023-03-21T23:32:01.889Z,36.00
2023-03-21T23:35:07.281Z,36.95
2023-03-21T23:38:11.918Z,36.15
2023-03-21T23:41:23.182Z,34.92
2023-03-21T23:44:28.999Z,35.78
2023-03-21T23:47:39.942Z,34.65
2023-03-21T23:50:44.782Z,35.83
2023-03-21T23:53:50.137Z,34.42
2023-03-21T23:56:57.641Z,35.78
